createdAt,value
2018-06-29T00:01:12.616Z,76.40
2018-06-29T00:03:41.393Z,76.30
2018-06-29T00:06:09.980Z,76.40
2018-06-29T00:08:38.570Z,76.20
2018-06-29T00:11:07.245Z,76.20
2018-06-29T00:13:35.793Z,76.20
2018-06-29T00:16:04.376Z,76.10
2018-06-29T00:18:32.879Z,76.00
2018-06-29T00:21:02.050Z,76.00
2018-06-29T00:23:30.664Z,76.20
2018-06-29T00:25:59.248Z,76.00
2018-06-29T00:28:28.071Z,76.00
2018-06-29T00:30:56.765Z,76.00
2018-06-29T00:33:25.319Z,75.90
2018-06-29T00:35:53.941Z,76.00
2018-06-29T00:38:22.832Z,76.10
2018-06-29T00:40:51.398Z,76.00
2018-06-29T00:43:20.188Z,75.80
2018-06-29T00:45:48.809Z,75.80
2018-06-29T00:48:17.357Z,75.70
2018-06-29T00:50:46.053Z,75.90
2018-06-29T00:53:14.661Z,76.30
2018-06-29T00:55:43.455Z,75.80
2018-06-29T00:58:12.035Z,75.80
2018-06-29T01:00:40.850Z,75.70
2018-06-29T01:03:09.908Z,75.70
2018-06-29T01:05:38.789Z,75.60
2018-06-29T01:08:07.439Z,75.90
2018-06-29T01:10:36.152Z,75.80
2018-06-29T01:13:04.741Z,75.70
2018-06-29T01:15:33.476Z,75.40
2018-06-29T01:18:02.161Z,75.50
2018-06-29T01:20:30.778Z,75.60
2018-06-29T01:22:59.844Z,75.80
2018-06-29T01:25:28.476Z,75.70
2018-06-29T01:27:57.065Z,76.20
2018-06-29T01:30:25.881Z,75.70
2018-06-29T01:32:54.645Z,75.90
2018-06-29T01:35:23.410Z,75.60
2018-06-29T01:37:52.153Z,75.20
2018-06-29T01:40:20.817Z,75.10
2018-06-29T01:42:49.432Z,75.10
2018-06-29T01:45:18.110Z,75.40
2018-06-29T01:47:46.745Z,75.10
2018-06-29T01:50:15.452Z,74.80
2018-06-29T01:52:44.103Z,74.50
2018-06-29T01:55:19.338Z,74.60
2018-06-29T01:57:47.946Z,74.90
2018-06-29T02:00:16.646Z,75.20
2018-06-29T02:02:45.276Z,75.50
2018-06-29T02:07:42.334Z,75.70
2018-06-29T02:10:11.280Z,76.00
2018-06-29T02:12:39.937Z,76.00
2018-06-29T02:15:08.833Z,76.00
2018-06-29T02:17:37.453Z,76.20
2018-06-29T02:20:06.580Z,76.10
2018-06-29T02:22:35.119Z,76.00
2018-06-29T02:25:03.881Z,76.00
2018-06-29T02:27:32.533Z,76.00
2018-06-29T02:30:01.194Z,76.00
2018-06-29T02:32:29.847Z,75.80
2018-06-29T02:34:58.457Z,76.10
2018-06-29T02:37:27.606Z,76.10
2018-06-29T02:39:56.225Z,75.80
2018-06-29T02:42:24.907Z,75.90
2018-06-29T02:44:54.007Z,76.00
2018-06-29T02:47:22.881Z,75.80
2018-06-29T02:49:51.540Z,75.80
2018-06-29T02:52:20.217Z,76.10
2018-06-29T02:54:48.816Z,76.10
2018-06-29T02:57:17.435Z,75.90
2018-06-29T02:59:46.030Z,76.10
2018-06-29T03:02:14.706Z,75.80
2018-06-29T03:04:43.256Z,76.20
2018-06-29T03:07:11.900Z,76.20
2018-06-29T03:09:40.430Z,76.00
2018-06-29T03:14:38.020Z,76.10
2018-06-29T03:17:06.648Z,76.10
2018-06-29T03:19:35.525Z,76.00
2018-06-29T03:22:04.323Z,76.10
2018-06-29T03:24:33.472Z,76.60
2018-06-29T03:27:02.534Z,76.40
2018-06-29T03:29:31.818Z,76.50
2018-06-29T03:32:01.276Z,76.40
2018-06-29T03:34:30.129Z,76.50
2018-06-29T03:36:59.215Z,76.10
2018-06-29T03:39:29.126Z,76.40
2018-06-29T03:41:57.866Z,76.00
2018-06-29T03:44:26.403Z,75.80
2018-06-29T03:46:56.208Z,75.70
2018-06-29T03:49:24.804Z,75.00
2018-06-29T03:51:53.465Z,75.00
2018-06-29T03:54:23.123Z,75.10
2018-06-29T03:56:51.770Z,75.20
2018-06-29T03:59:20.910Z,75.00
2018-06-29T04:01:49.663Z,75.10
2018-06-29T04:04:18.244Z,75.20
2018-06-29T04:06:47.088Z,75.10
2018-06-29T04:09:15.719Z,74.90
2018-06-29T04:11:44.380Z,74.40
2018-06-29T04:14:13.211Z,74.20
2018-06-29T04:16:41.832Z,73.20
2018-06-29T04:19:10.428Z,73.40
2018-06-29T04:21:39.147Z,73.50
2018-06-29T04:24:08.186Z,74.20
2018-06-29T04:26:37.615Z,74.50
2018-06-29T04:29:06.308Z,74.70
2018-06-29T04:31:35.311Z,75.10
2018-06-29T04:34:04.630Z,74.50
2018-06-29T04:36:33.971Z,73.70
2018-06-29T04:39:02.747Z,73.30
2018-06-29T04:41:31.412Z,73.20
2018-06-29T04:44:00.044Z,72.90
2018-06-29T04:46:28.739Z,72.70
2018-06-29T04:48:57.359Z,72.70
2018-06-29T04:51:26.205Z,72.50
2018-06-29T04:53:55.578Z,72.80
2018-06-29T04:56:24.434Z,73.10
2018-06-29T04:58:53.953Z,73.10
2018-06-29T05:01:22.900Z,73.10
2018-06-29T05:03:51.617Z,73.20
2018-06-29T05:06:20.804Z,73.60
2018-06-29T05:08:49.579Z,73.70
2018-06-29T05:11:18.306Z,73.80
2018-06-29T05:13:46.994Z,73.30
2018-06-29T05:16:15.747Z,72.60
2018-06-29T05:18:45.769Z,72.80
2018-06-29T05:21:14.783Z,72.80
2018-06-29T05:23:43.595Z,72.60
2018-06-29T05:26:12.653Z,72.10
2018-06-29T05:28:41.889Z,71.40
2018-06-29T05:31:10.752Z,72.10
2018-06-29T05:33:39.961Z,71.80
2018-06-29T05:36:09.870Z,71.80
2018-06-29T05:38:38.745Z,71.50
2018-06-29T05:41:07.394Z,71.80
2018-06-29T05:43:36.528Z,72.00
2018-06-29T05:46:06.036Z,72.50
2018-06-29T05:48:35.034Z,72.40
2018-06-29T05:51:03.875Z,72.30
2018-06-29T05:53:33.728Z,72.10
2018-06-29T05:56:02.404Z,72.80
2018-06-29T05:58:31.756Z,72.80
2018-06-29T06:01:00.733Z,72.80
2018-06-29T06:03:29.452Z,72.90
2018-06-29T06:05:58.122Z,72.90
2018-06-29T06:08:26.808Z,72.10
2018-06-29T06:10:56.419Z,72.20
2018-06-29T06:13:26.108Z,73.00
2018-06-29T06:15:54.880Z,72.00
2018-06-29T06:18:25.706Z,72.00
2018-06-29T06:20:55.034Z,71.90
2018-06-29T06:23:24.934Z,72.10
2018-06-29T06:25:54.032Z,71.70
2018-06-29T06:28:23.195Z,71.70
2018-06-29T06:30:52.448Z,71.60
2018-06-29T06:33:21.209Z,71.20
2018-06-29T06:35:50.499Z,71.30
2018-06-29T06:38:19.167Z,71.50
2018-06-29T06:40:49.414Z,71.60
2018-06-29T06:43:17.980Z,72.00
2018-06-29T06:45:48.244Z,72.10
2018-06-29T06:48:16.951Z,72.10
2018-06-29T06:50:48.301Z,72.10
2018-06-29T06:53:17.806Z,72.00
2018-06-29T06:55:46.767Z,71.80
2018-06-29T06:58:15.616Z,71.50
2018-06-29T07:00:44.544Z,71.60
2018-06-29T07:03:13.499Z,71.40
2018-06-29T07:08:10.606Z,71.60
2018-06-29T07:10:39.704Z,72.10
2018-06-29T07:13:08.967Z,71.70
2018-06-29T07:18:06.297Z,71.90
2018-06-29T07:20:35.742Z,71.70
2018-06-29T07:23:04.387Z,71.80
2018-06-29T07:25:32.988Z,71.50
2018-06-29T07:28:02.454Z,71.40
2018-06-29T07:30:31.199Z,71.60
2018-06-29T07:33:00.102Z,71.70
2018-06-29T07:35:29.277Z,71.90
2018-06-29T07:37:57.949Z,72.30
2018-06-29T07:40:26.809Z,73.10
2018-06-29T07:42:55.481Z,73.20
2018-06-29T07:45:24.577Z,73.50
2018-06-29T07:47:53.386Z,74.00
2018-06-29T07:50:22.118Z,74.10
2018-06-29T07:52:50.694Z,74.40
2018-06-29T07:55:19.317Z,74.80
2018-06-29T07:57:48.280Z,74.90
2018-06-29T08:00:17.946Z,74.60
2018-06-29T08:02:46.874Z,74.30
2018-06-29T08:05:15.788Z,74.20
2018-06-29T08:07:44.827Z,74.50
2018-06-29T08:10:13.441Z,74.60
2018-06-29T08:12:43.288Z,74.40
2018-06-29T08:15:13.628Z,73.60
2018-06-29T08:17:42.215Z,73.10
2018-06-29T08:20:10.850Z,73.20
2018-06-29T08:22:39.686Z,73.10
2018-06-29T08:25:12.772Z,73.00
2018-06-29T08:27:42.147Z,72.80
2018-06-29T08:30:11.990Z,72.80
2018-06-29T08:32:41.392Z,72.50
2018-06-29T08:35:11.201Z,72.60
2018-06-29T08:37:40.147Z,72.40
2018-06-29T08:42:38.351Z,72.00
2018-06-29T08:45:08.097Z,72.10
2018-06-29T08:47:37.310Z,71.50
2018-06-29T08:50:05.985Z,71.40
2018-06-29T08:52:49.253Z,71.20
2018-06-29T08:55:18.983Z,70.70
2018-06-29T08:57:48.283Z,70.40
2018-06-29T09:00:17.379Z,70.00
2018-06-29T09:02:46.338Z,69.90
2018-06-29T09:05:15.925Z,70.00
2018-06-29T09:07:44.833Z,70.20
2018-06-29T09:10:13.716Z,70.10
2018-06-29T09:12:42.311Z,70.00
2018-06-29T09:15:11.140Z,70.00
2018-06-29T09:17:40.117Z,69.80
2018-06-29T09:20:08.996Z,69.80
2018-06-29T09:22:38.407Z,69.90
2018-06-29T09:25:07.354Z,69.60
2018-06-29T09:27:36.015Z,69.30
2018-06-29T09:30:05.935Z,69.40
2018-06-29T09:32:34.536Z,69.40
2018-06-29T09:35:03.139Z,70.00
2018-06-29T09:37:31.965Z,69.40
2018-06-29T09:42:29.342Z,68.60
2018-06-29T09:44:58.764Z,68.50
2018-06-29T09:47:29.328Z,68.60
2018-06-29T09:49:58.275Z,68.60
2018-06-29T09:52:26.912Z,68.60
2018-06-29T09:54:55.612Z,68.90
2018-06-29T09:57:25.070Z,69.00
2018-06-29T09:59:54.980Z,68.50
2018-06-29T10:04:52.561Z,67.70
2018-06-29T10:07:21.328Z,67.80
2018-06-29T10:09:50.089Z,67.40
2018-06-29T10:12:19.153Z,67.40
2018-06-29T10:14:48.417Z,67.30
2018-06-29T10:19:46.777Z,66.70
2018-06-29T10:24:44.255Z,66.80
2018-06-29T10:27:13.196Z,66.30
2018-06-29T10:29:42.035Z,66.50
2018-06-29T10:32:11.435Z,66.10
2018-06-29T10:34:40.222Z,66.30
2018-06-29T10:37:09.126Z,65.20
2018-06-29T10:39:38.911Z,65.30
2018-06-29T10:42:07.522Z,64.30
2018-06-29T10:44:36.142Z,64.70
2018-06-29T10:47:05.936Z,65.10
2018-06-29T10:49:35.062Z,64.90
2018-06-29T10:52:04.199Z,64.80
2018-06-29T10:54:33.830Z,65.30
2018-06-29T10:57:02.949Z,65.70
2018-06-29T10:59:31.956Z,65.10
2018-06-29T11:02:00.936Z,65.20
2018-06-29T11:04:29.722Z,64.60
2018-06-29T11:06:59.027Z,64.70
2018-06-29T11:09:28.458Z,65.00
2018-06-29T11:11:58.142Z,65.00
2018-06-29T11:14:26.931Z,65.20
2018-06-29T11:16:55.648Z,65.40
2018-06-29T11:19:24.327Z,65.30
2018-06-29T11:21:52.967Z,65.70
2018-06-29T11:24:21.574Z,65.60
2018-06-29T11:26:50.326Z,65.20
2018-06-29T11:29:19.024Z,64.90
2018-06-29T11:31:47.913Z,64.20
2018-06-29T11:34:16.591Z,63.90
2018-06-29T11:36:45.934Z,64.00
2018-06-29T11:39:14.844Z,63.80
2018-06-29T11:41:44.023Z,63.20
2018-06-29T11:44:13.766Z,64.00
2018-06-29T11:46:43.661Z,63.90
2018-06-29T11:49:12.637Z,63.40
2018-06-29T11:51:41.759Z,63.60
2018-06-29T11:54:10.832Z,63.00
2018-06-29T11:56:39.990Z,62.20
2018-06-29T11:59:10.165Z,61.30
2018-06-29T12:01:40.173Z,61.70
2018-06-29T12:04:09.628Z,61.70
2018-06-29T12:06:38.279Z,61.80
2018-06-29T12:09:09.267Z,62.20
2018-06-29T12:11:39.436Z,62.30
2018-06-29T12:14:08.741Z,62.30
2018-06-29T12:16:37.367Z,62.10
2018-06-29T12:19:05.997Z,61.70
2018-06-29T12:21:34.986Z,62.20
2018-06-29T12:24:04.473Z,60.30
2018-06-29T12:26:34.026Z,60.60
2018-06-29T12:31:31.272Z,61.60
2018-06-29T12:33:59.970Z,61.20
2018-06-29T12:36:29.458Z,61.10
2018-06-29T12:38:59.597Z,59.90
2018-06-29T12:41:29.486Z,59.30
2018-06-29T12:46:28.240Z,59.70
2018-06-29T12:48:57.534Z,59.80
2018-06-29T12:51:26.650Z,59.60
2018-06-29T12:53:55.585Z,59.60
2018-06-29T12:56:24.247Z,59.20
2018-06-29T12:58:53.286Z,59.50
2018-06-29T13:01:23.370Z,59.50
2018-06-29T13:03:53.344Z,59.00
2018-06-29T13:06:22.702Z,57.70
2018-06-29T13:08:52.226Z,58.10
2018-06-29T13:11:20.872Z,57.30
2018-06-29T13:13:49.480Z,56.50
2018-06-29T13:16:18.899Z,56.70
2018-06-29T13:18:47.566Z,58.00
2018-06-29T13:21:16.587Z,56.90
2018-06-29T13:23:46.705Z,57.30
2018-06-29T13:26:15.857Z,56.80
2018-06-29T13:28:45.035Z,57.40
2018-06-29T13:31:13.746Z,56.30
2018-06-29T13:33:43.281Z,56.30
2018-06-29T13:36:13.351Z,56.40
2018-06-29T13:38:43.116Z,57.10
2018-06-29T13:41:12.305Z,57.40
2018-06-29T13:43:41.935Z,57.30
2018-06-29T13:46:10.701Z,56.20
2018-06-29T13:48:39.431Z,56.00
2018-06-29T13:51:09.013Z,55.70
2018-06-29T13:53:38.880Z,56.10
2018-06-29T13:56:08.572Z,55.70
2018-06-29T13:58:38.134Z,55.90
2018-06-29T14:01:07.436Z,56.40
2018-06-29T14:03:36.141Z,56.20
2018-06-29T14:06:05.137Z,55.90
2018-06-29T14:08:34.110Z,56.30
2018-06-29T14:11:03.575Z,56.50
2018-06-29T14:13:33.245Z,57.10
2018-06-29T14:16:01.984Z,57.10
2018-06-29T14:18:31.028Z,57.20
2018-06-29T14:20:59.756Z,57.20
2018-06-29T14:23:29.028Z,56.80
2018-06-29T14:25:58.602Z,56.70
2018-06-29T14:28:27.584Z,56.80
2018-06-29T14:30:56.663Z,56.60
2018-06-29T14:33:25.705Z,56.40
2018-06-29T14:35:54.473Z,56.40
2018-06-29T14:38:23.775Z,56.60
2018-06-29T14:40:53.065Z,55.90
2018-06-29T14:43:21.727Z,56.90
2018-06-29T14:45:50.462Z,57.50
2018-06-29T14:48:19.207Z,56.30
2018-06-29T14:50:48.242Z,57.10
2018-06-29T14:53:17.535Z,56.90
2018-06-29T14:55:46.148Z,55.90
2018-06-29T14:58:15.494Z,56.30
2018-06-29T15:00:44.109Z,56.20
2018-06-29T15:03:12.767Z,55.90
2018-06-29T15:05:41.401Z,56.10
2018-06-29T15:08:10.604Z,56.10
2018-06-29T15:10:39.573Z,56.00
2018-06-29T15:13:08.607Z,56.30
2018-06-29T15:15:37.358Z,56.10
2018-06-29T15:18:06.596Z,56.80
2018-06-29T15:20:35.410Z,56.20
2018-06-29T15:23:04.552Z,56.70
2018-06-29T15:25:33.765Z,56.60
2018-06-29T15:28:02.915Z,56.60
2018-06-29T15:30:32.452Z,56.30
2018-06-29T15:33:01.230Z,56.50
2018-06-29T15:35:29.929Z,56.90
2018-06-29T15:37:58.590Z,57.30
2018-06-29T15:40:27.281Z,57.10
2018-06-29T15:42:55.985Z,57.30
2018-06-29T15:45:25.728Z,57.20
2018-06-29T15:47:54.599Z,57.30
2018-06-29T15:50:23.784Z,57.20
2018-06-29T15:52:52.826Z,56.80
2018-06-29T15:55:21.666Z,57.00
2018-06-29T15:57:51.661Z,56.90
2018-06-29T16:00:20.654Z,57.30
2018-06-29T16:02:49.217Z,57.20
2018-06-29T16:05:17.903Z,57.20
2018-06-29T16:07:46.522Z,57.10
2018-06-29T16:10:15.582Z,56.80
2018-06-29T16:12:44.416Z,57.20
2018-06-29T16:15:13.408Z,56.50
2018-06-29T16:17:42.089Z,55.80
2018-06-29T16:20:12.055Z,55.90
2018-06-29T16:22:41.371Z,56.10
2018-06-29T16:25:10.007Z,54.10
2018-06-29T16:27:39.022Z,54.90
2018-06-29T16:30:08.922Z,54.90
2018-06-29T16:32:37.474Z,55.30
2018-06-29T16:35:06.438Z,55.30
2018-06-29T16:37:35.189Z,55.80
2018-06-29T16:40:03.916Z,56.30
2018-06-29T16:42:32.619Z,56.30
2018-06-29T16:45:01.223Z,56.20
2018-06-29T16:47:29.980Z,56.10
2018-06-29T16:49:58.931Z,55.90
2018-06-29T16:52:27.518Z,55.60
2018-06-29T16:54:56.098Z,55.70
2018-06-29T16:57:25.324Z,56.00
2018-06-29T16:59:54.044Z,56.30
2018-06-29T17:02:22.868Z,56.50
2018-06-29T17:04:52.072Z,56.70
2018-06-29T17:07:20.776Z,56.50
2018-06-29T17:09:49.726Z,56.70
2018-06-29T17:12:19.055Z,56.30
2018-06-29T17:14:47.673Z,56.40
2018-06-29T17:17:16.427Z,56.50
2018-06-29T17:19:45.080Z,56.70
2018-06-29T17:22:13.781Z,56.30
2018-06-29T17:24:42.522Z,56.30
2018-06-29T17:27:11.197Z,56.50
2018-06-29T17:29:39.891Z,57.00
2018-06-29T17:32:08.543Z,57.00
2018-06-29T17:34:37.183Z,56.90
2018-06-29T17:37:05.881Z,57.00
2018-06-29T17:39:34.537Z,56.70
2018-06-29T17:42:03.655Z,56.80
2018-06-29T17:44:32.649Z,56.80
2018-06-29T17:47:01.378Z,56.80
2018-06-29T17:49:29.970Z,57.00
2018-06-29T17:51:58.612Z,56.90
2018-06-29T17:54:27.212Z,56.70
2018-06-29T17:56:56.420Z,56.70
2018-06-29T17:59:25.079Z,56.70
2018-06-29T18:01:53.947Z,57.00
2018-06-29T18:04:23.024Z,56.90
2018-06-29T18:06:51.629Z,56.90
2018-06-29T18:09:20.240Z,56.90
2018-06-29T18:11:49.011Z,57.10
2018-06-29T18:14:18.145Z,57.00
2018-06-29T18:16:47.015Z,57.10
2018-06-29T18:19:15.697Z,57.20
2018-06-29T18:21:44.274Z,57.20
2018-06-29T18:24:12.971Z,57.20
2018-06-29T18:26:41.707Z,57.50
2018-06-29T18:29:10.484Z,57.70
2018-06-29T18:34:08.837Z,57.70
2018-06-29T18:36:37.849Z,57.80
2018-06-29T18:39:08.797Z,58.00
2018-06-29T18:41:37.480Z,58.10
2018-06-29T18:44:06.142Z,58.50
2018-06-29T18:46:34.709Z,58.80
2018-06-29T18:49:03.591Z,58.90
2018-06-29T18:51:32.491Z,59.20
2018-06-29T18:54:01.251Z,60.20
2018-06-29T18:56:29.917Z,60.30
2018-06-29T18:58:58.676Z,60.70
2018-06-29T19:01:27.925Z,60.10
2018-06-29T19:03:56.668Z,60.70
2018-06-29T19:06:25.388Z,60.90
2018-06-29T19:08:54.428Z,60.90
2018-06-29T19:11:23.295Z,60.80
2018-06-29T19:13:51.946Z,60.90
2018-06-29T19:16:21.508Z,61.10
2018-06-29T19:18:51.206Z,61.10
2018-06-29T19:21:20.171Z,61.00
2018-06-29T19:26:17.307Z,61.10
2018-06-29T19:28:46.128Z,61.10
2018-06-29T19:31:14.777Z,61.20
2018-06-29T19:33:43.476Z,61.00
2018-06-29T19:36:12.211Z,61.70
2018-06-29T19:38:40.889Z,62.30
2018-06-29T19:41:09.840Z,62.50
2018-06-29T19:43:38.527Z,62.50
2018-06-29T19:46:07.199Z,62.70
2018-06-29T19:48:35.875Z,62.40
2018-06-29T19:51:04.739Z,63.20
2018-06-29T19:53:33.391Z,63.50
2018-06-29T19:56:02.131Z,63.90
2018-06-29T19:58:30.897Z,64.00
2018-06-29T20:00:59.995Z,64.70
2018-06-29T20:03:28.853Z,64.80
2018-06-29T20:05:57.489Z,64.80
2018-06-29T20:08:26.124Z,64.70
2018-06-29T20:15:51.601Z,65.30
2018-06-29T20:18:20.305Z,65.70
2018-06-29T20:20:48.946Z,65.90
2018-06-29T20:23:17.747Z,66.00
2018-06-29T20:25:46.464Z,66.10
2018-06-29T20:28:15.107Z,66.30
2018-06-29T20:30:43.879Z,66.40
2018-06-29T20:33:12.768Z,66.40
2018-06-29T20:35:41.435Z,66.60
2018-06-29T20:38:10.066Z,66.70
2018-06-29T20:40:38.709Z,66.70
2018-06-29T20:43:07.414Z,66.80
2018-06-29T20:45:36.100Z,66.80
2018-06-29T20:48:04.947Z,67.40
2018-06-29T20:50:33.883Z,67.00
2018-06-29T20:53:02.651Z,67.00
2018-06-29T20:55:31.908Z,67.10
2018-06-29T20:58:00.497Z,67.10
2018-06-29T21:00:29.822Z,67.10
2018-06-29T21:02:58.865Z,67.10
2018-06-29T21:05:28.088Z,67.10
2018-06-29T21:07:56.787Z,67.20
2018-06-29T21:10:25.411Z,67.20
2018-06-29T21:12:54.346Z,67.30
2018-06-29T21:15:22.960Z,67.10
2018-06-29T21:17:51.852Z,67.10
2018-06-29T21:20:20.719Z,67.20
2018-06-29T21:22:49.484Z,67.60
2018-06-29T21:25:18.200Z,67.60
2018-06-29T21:27:46.768Z,67.50
2018-06-29T21:30:15.892Z,67.60
2018-06-29T21:32:44.517Z,67.60
2018-06-29T21:35:13.180Z,67.60
2018-06-29T21:37:41.765Z,67.70
2018-06-29T21:40:10.436Z,67.60
2018-06-29T21:42:39.146Z,67.50
2018-06-29T21:45:07.860Z,67.70
2018-06-29T21:47:36.904Z,67.80
2018-06-29T21:50:05.570Z,67.80
2018-06-29T21:52:34.162Z,67.80
2018-06-29T21:55:03.095Z,68.50
2018-06-29T21:57:31.733Z,68.00
2018-06-29T22:00:00.295Z,68.10
2018-06-29T22:02:28.999Z,68.10
2018-06-29T22:04:57.627Z,68.10
2018-06-29T22:07:26.319Z,68.00
2018-06-29T22:09:54.969Z,68.00
2018-06-29T22:12:23.693Z,68.10
2018-06-29T22:14:52.426Z,67.90
2018-06-29T22:17:21.084Z,68.20
2018-06-29T22:19:49.651Z,68.30
2018-06-29T22:22:18.302Z,68.40
2018-06-29T22:24:46.971Z,68.40
2018-06-29T22:27:15.561Z,68.60
2018-06-29T22:29:44.134Z,68.60
2018-06-29T22:32:12.766Z,68.70
2018-06-29T22:34:41.401Z,69.00
2018-06-29T22:37:10.000Z,69.20
2018-06-29T22:39:38.583Z,69.40
2018-06-29T22:42:07.174Z,68.90
2018-06-29T22:44:35.785Z,69.00
2018-06-29T22:47:04.344Z,69.00
2018-06-29T22:49:32.901Z,69.10
2018-06-29T22:52:01.540Z,69.80
2018-06-29T22:54:30.142Z,69.20
2018-06-29T22:56:58.713Z,69.20
2018-06-29T22:59:27.319Z,69.50
2018-06-29T23:01:55.934Z,69.30
2018-06-29T23:04:24.531Z,69.10
2018-06-29T23:06:53.366Z,69.30
2018-06-29T23:09:21.973Z,69.30
2018-06-29T23:11:50.881Z,69.30
2018-06-29T23:14:19.415Z,69.20
2018-06-29T23:16:48.157Z,69.20
2018-06-29T23:19:16.841Z,69.10
2018-06-29T23:21:45.402Z,69.30
2018-06-29T23:24:14.075Z,69.50
2018-06-29T23:26:42.707Z,69.70
2018-06-29T23:29:11.279Z,69.60
2018-06-29T23:34:08.203Z,69.40
2018-06-29T23:36:36.728Z,69.30
2018-06-29T23:39:07.531Z,70.10
2018-06-29T23:44:04.422Z,69.40
2018-06-29T23:46:32.979Z,69.40
2018-06-29T23:49:01.620Z,69.40
2018-06-29T23:51:30.208Z,69.40
2018-06-29T23:53:59.016Z,69.30
2018-06-29T23:56:27.583Z,69.60
2018-06-29T23:58:56.253Z,69.80
